sensor_id;sensor_type;location;lat;lon;timestamp;P1;durP1;ratioP1;P2;durP2;ratioP2
72132;SDS011;60008;50.826;6.896;2022-11-04T00:01:36;1.00;;;0.30;;
72132;SDS011;60008;50.826;6.896;2022-11-04T00:04:24;2.10;;;0.50;;
72132;SDS011;60008;50.826;6.896;2022-11-04T00:07:11;1.13;;;0.40;;
72132;SDS011;60008;50.826;6.896;2022-11-04T00:10:15;3.20;;;0.38;;
72132;SDS011;60008;50.826;6.896;2022-11-04T00:13:00;1.70;;;0.47;;
72132;SDS011;60008;50.826;6.896;2022-11-04T00:15:45;1.00;;;0.40;;
72132;SDS011;60008;50.826;6.896;2022-11-04T00:18:49;0.85;;;0.30;;
72132;SDS011;60008;50.826;6.896;2022-11-04T00:21:34;1.43;;;0.33;;
72132;SDS011;60008;50.826;6.896;2022-11-04T00:24:38;1.27;;;0.40;;
72132;SDS011;60008;50.826;6.896;2022-11-04T00:27:26;1.10;;;0.30;;
72132;SDS011;60008;50.826;6.896;2022-11-04T00:30:43;1.90;;;0.50;;
72132;SDS011;60008;50.826;6.896;2022-11-04T00:33:28;2.25;;;0.60;;
72132;SDS011;60008;50.826;6.896;2022-11-04T00:36:13;1.13;;;0.30;;
72132;SDS011;60008;50.826;6.896;2022-11-04T00:38:59;1.27;;;0.40;;
72132;SDS011;60008;50.826;6.896;2022-11-04T00:41:44;1.80;;;0.50;;
72132;SDS011;60008;50.826;6.896;2022-11-04T00:44:28;1.88;;;0.43;;
72132;SDS011;60008;50.826;6.896;2022-11-04T00:47:13;1.00;;;0.30;;
72132;SDS011;60008;50.826;6.896;2022-11-04T00:49:58;5.03;;;0.50;;
72132;SDS011;60008;50.826;6.896;2022-11-04T00:52:43;1.00;;;0.32;;
72132;SDS011;60008;50.826;6.896;2022-11-04T00:55:28;1.60;;;0.40;;
72132;SDS011;60008;50.826;6.896;2022-11-04T00:58:13;1.58;;;0.50;;
72132;SDS011;60008;50.826;6.896;2022-11-04T01:00:58;1.25;;;0.40;;
72132;SDS011;60008;50.826;6.896;2022-11-04T01:03:43;2.90;;;0.40;;
72132;SDS011;60008;50.826;6.896;2022-11-04T01:06:28;2.33;;;0.40;;
72132;SDS011;60008;50.826;6.896;2022-11-04T01:09:13;1.05;;;0.45;;
72132;SDS011;60008;50.826;6.896;2022-11-04T01:11:58;0.90;;;0.30;;
72132;SDS011;60008;50.826;6.896;2022-11-04T01:14:43;1.15;;;0.50;;
72132;SDS011;60008;50.826;6.896;2022-11-04T01:17:28;3.97;;;0.50;;
72132;SDS011;60008;50.826;6.896;2022-11-04T01:20:13;1.10;;;0.47;;
72132;SDS011;60008;50.826;6.896;2022-11-04T01:22:58;1.77;;;0.50;;
72132;SDS011;60008;50.826;6.896;2022-11-04T01:25:43;1.15;;;0.40;;
72132;SDS011;60008;50.826;6.896;2022-11-04T01:28:28;1.13;;;0.30;;
72132;SDS011;60008;50.826;6.896;2022-11-04T01:31:15;1.00;;;0.30;;
72132;SDS011;60008;50.826;6.896;2022-11-04T01:34:02;0.80;;;0.30;;
72132;SDS011;60008;50.826;6.896;2022-11-04T01:36:47;2.15;;;0.30;;
72132;SDS011;60008;50.826;6.896;2022-11-04T01:39:32;1.02;;;0.22;;
72132;SDS011;60008;50.826;6.896;2022-11-04T01:42:19;1.15;;;0.40;;
72132;SDS011;60008;50.826;6.896;2022-11-04T01:45:07;1.70;;;0.40;;
72132;SDS011;60008;50.826;6.896;2022-11-04T01:48:02;1.48;;;0.40;;
72132;SDS011;60008;50.826;6.896;2022-11-04T01:50:50;1.35;;;0.50;;
72132;SDS011;60008;50.826;6.896;2022-11-04T01:53:38;2.70;;;0.52;;
72132;SDS011;60008;50.826;6.896;2022-11-04T01:56:25;1.83;;;0.28;;
72132;SDS011;60008;50.826;6.896;2022-11-04T01:59:14;2.40;;;0.50;;
72132;SDS011;60008;50.826;6.896;2022-11-04T02:02:04;2.58;;;0.40;;
72132;SDS011;60008;50.826;6.896;2022-11-04T02:04:49;1.40;;;0.30;;
72132;SDS011;60008;50.826;6.896;2022-11-04T02:07:35;2.05;;;0.30;;
72132;SDS011;60008;50.826;6.896;2022-11-04T02:10:21;1.05;;;0.30;;
72132;SDS011;60008;50.826;6.896;2022-11-04T02:13:09;1.10;;;0.30;;
72132;SDS011;60008;50.826;6.896;2022-11-04T02:15:57;1.85;;;0.40;;
72132;SDS011;60008;50.826;6.896;2022-11-04T02:19:57;2.75;;;0.50;;
72132;SDS011;60008;50.826;6.896;2022-11-04T02:29:45;4.57;;;0.40;;
72132;SDS011;60008;50.826;6.896;2022-11-04T02:32:30;1.73;;;0.30;;
72132;SDS011;60008;50.826;6.896;2022-11-04T02:35:29;3.97;;;0.30;;
72132;SDS011;60008;50.826;6.896;2022-11-04T02:38:29;1.23;;;0.35;;
72132;SDS011;60008;50.826;6.896;2022-11-04T02:41:32;2.88;;;0.60;;
72132;SDS011;60008;50.826;6.896;2022-11-04T02:44:27;2.77;;;0.60;;
72132;SDS011;60008;50.826;6.896;2022-11-04T02:47:19;2.63;;;0.35;;
72132;SDS011;60008;50.826;6.896;2022-11-04T02:50:13;2.55;;;0.40;;
72132;SDS011;60008;50.826;6.896;2022-11-04T02:53:10;2.50;;;0.35;;
72132;SDS011;60008;50.826;6.896;2022-11-04T02:56:01;3.70;;;0.40;;
72132;SDS011;60008;50.826;6.896;2022-11-04T02:58:51;3.73;;;0.40;;
72132;SDS011;60008;50.826;6.896;2022-11-04T03:01:39;3.25;;;0.50;;
72132;SDS011;60008;50.826;6.896;2022-11-04T03:04:29;2.85;;;0.30;;
72132;SDS011;60008;50.826;6.896;2022-11-04T03:07:17;1.35;;;0.30;;
72132;SDS011;60008;50.826;6.896;2022-11-04T03:10:14;5.88;;;0.40;;
72132;SDS011;60008;50.826;6.896;2022-11-04T03:15:59;3.83;;;0.30;;
72132;SDS011;60008;50.826;6.896;2022-11-04T03:18:58;4.00;;;0.47;;
72132;SDS011;60008;50.826;6.896;2022-11-04T03:22:02;4.00;;;0.30;;
72132;SDS011;60008;50.826;6.896;2022-11-04T03:24:49;2.83;;;0.50;;
72132;SDS011;60008;50.826;6.896;2022-11-04T03:27:46;2.83;;;0.50;;
72132;SDS011;60008;50.826;6.896;2022-11-04T03:30:39;4.22;;;0.40;;
72132;SDS011;60008;50.826;6.896;2022-11-04T03:36:31;4.22;;;0.52;;
72132;SDS011;60008;50.826;6.896;2022-11-04T03:39:16;3.10;;;0.45;;
72132;SDS011;60008;50.826;6.896;2022-11-04T03:42:02;2.40;;;0.47;;
72132;SDS011;60008;50.826;6.896;2022-11-04T03:45:03;1.67;;;0.60;;
72132;SDS011;60008;50.826;6.896;2022-11-04T03:47:49;3.90;;;0.80;;
72132;SDS011;60008;50.826;6.896;2022-11-04T03:50:44;11.35;;;0.70;;
72132;SDS011;60008;50.826;6.896;2022-11-04T03:53:31;5.82;;;0.88;;
72132;SDS011;60008;50.826;6.896;2022-11-04T03:59:23;2.65;;;0.93;;
72132;SDS011;60008;50.826;6.896;2022-11-04T04:02:40;5.05;;;0.90;;
72132;SDS011;60008;50.826;6.896;2022-11-04T04:05:44;7.25;;;1.17;;
72132;SDS011;60008;50.826;6.896;2022-11-04T04:08:43;5.85;;;1.20;;
72132;SDS011;60008;50.826;6.896;2022-11-04T04:11:40;4.63;;;0.80;;
72132;SDS011;60008;50.826;6.896;2022-11-04T04:14:31;4.35;;;0.70;;
72132;SDS011;60008;50.826;6.896;2022-11-04T04:17:24;2.45;;;0.50;;
72132;SDS011;60008;50.826;6.896;2022-11-04T04:20:19;2.75;;;0.50;;
72132;SDS011;60008;50.826;6.896;2022-11-04T04:23:07;4.70;;;0.45;;
72132;SDS011;60008;50.826;6.896;2022-11-04T04:26:16;3.80;;;0.90;;
72132;SDS011;60008;50.826;6.896;2022-11-04T04:29:23;3.50;;;0.55;;
72132;SDS011;60008;50.826;6.896;2022-11-04T04:32:11;7.90;;;0.80;;
72132;SDS011;60008;50.826;6.896;2022-11-04T04:34:57;1.95;;;0.50;;
72132;SDS011;60008;50.826;6.896;2022-11-04T04:38:02;3.35;;;0.95;;
72132;SDS011;60008;50.826;6.896;2022-11-04T04:41:13;5.30;;;0.73;;
72132;SDS011;60008;50.826;6.896;2022-11-04T04:44:22;6.43;;;0.80;;
72132;SDS011;60008;50.826;6.896;2022-11-04T04:47:37;6.15;;;0.77;;
72132;SDS011;60008;50.826;6.896;2022-11-04T04:50:30;5.30;;;0.65;;
72132;SDS011;60008;50.826;6.896;2022-11-04T04:53:21;5.13;;;0.98;;
72132;SDS011;60008;50.826;6.896;2022-11-04T04:56:06;6.80;;;0.97;;
72132;SDS011;60008;50.826;6.896;2022-11-04T04:58:51;3.25;;;0.77;;
72132;SDS011;60008;50.826;6.896;2022-11-04T05:01:35;2.70;;;0.80;;
72132;SDS011;60008;50.826;6.896;2022-11-04T05:04:20;5.95;;;0.70;;
72132;SDS011;60008;50.826;6.896;2022-11-04T05:07:05;4.60;;;0.75;;
72132;SDS011;60008;50.826;6.896;2022-11-04T05:09:52;4.40;;;0.60;;
72132;SDS011;60008;50.826;6.896;2022-11-04T05:12:37;3.15;;;0.80;;
72132;SDS011;60008;50.826;6.896;2022-11-04T05:15:42;2.13;;;0.50;;
72132;SDS011;60008;50.826;6.896;2022-11-04T05:18:27;10.02;;;0.98;;
72132;SDS011;60008;50.826;6.896;2022-11-04T05:21:12;5.47;;;0.80;;
72132;SDS011;60008;50.826;6.896;2022-11-04T05:23:59;5.73;;;0.57;;
72132;SDS011;60008;50.826;6.896;2022-11-04T05:26:44;5.60;;;1.10;;
72132;SDS011;60008;50.826;6.896;2022-11-04T05:29:29;5.85;;;0.70;;
72132;SDS011;60008;50.826;6.896;2022-11-04T05:32:14;5.13;;;0.88;;
72132;SDS011;60008;50.826;6.896;2022-11-04T05:34:58;4.60;;;1.00;;
72132;SDS011;60008;50.826;6.896;2022-11-04T05:37:43;3.43;;;0.83;;
72132;SDS011;60008;50.826;6.896;2022-11-04T05:40:28;6.38;;;1.05;;
72132;SDS011;60008;50.826;6.896;2022-11-04T05:43:13;4.00;;;0.90;;
72132;SDS011;60008;50.826;6.896;2022-11-04T05:45:58;2.47;;;0.77;;
72132;SDS011;60008;50.826;6.896;2022-11-04T05:48:44;2.83;;;0.90;;
72132;SDS011;60008;50.826;6.896;2022-11-04T05:51:29;1.70;;;0.60;;
72132;SDS011;60008;50.826;6.896;2022-11-04T05:54:14;3.08;;;1.00;;
72132;SDS011;60008;50.826;6.896;2022-11-04T05:56:59;5.15;;;0.88;;
72132;SDS011;60008;50.826;6.896;2022-11-04T05:59:44;5.13;;;0.70;;
72132;SDS011;60008;50.826;6.896;2022-11-04T06:02:29;4.82;;;0.93;;
72132;SDS011;60008;50.826;6.896;2022-11-04T06:05:14;5.30;;;0.87;;
72132;SDS011;60008;50.826;6.896;2022-11-04T06:07:58;3.03;;;0.70;;
72132;SDS011;60008;50.826;6.896;2022-11-04T06:10:43;3.97;;;0.73;;
72132;SDS011;60008;50.826;6.896;2022-11-04T06:13:28;3.30;;;0.95;;
72132;SDS011;60008;50.826;6.896;2022-11-04T06:16:13;2.30;;;0.80;;
72132;SDS011;60008;50.826;6.896;2022-11-04T06:18:58;4.47;;;1.20;;
72132;SDS011;60008;50.826;6.896;2022-11-04T06:21:53;3.67;;;1.00;;
72132;SDS011;60008;50.826;6.896;2022-11-04T06:24:38;5.50;;;1.40;;
72132;SDS011;60008;50.826;6.896;2022-11-04T06:27:24;3.95;;;1.15;;
72132;SDS011;60008;50.826;6.896;2022-11-04T06:30:09;3.33;;;1.10;;
72132;SDS011;60008;50.826;6.896;2022-11-04T06:32:55;5.93;;;1.43;;
72132;SDS011;60008;50.826;6.896;2022-11-04T06:35:40;3.90;;;1.25;;
72132;SDS011;60008;50.826;6.896;2022-11-04T06:38:25;8.90;;;2.08;;
72132;SDS011;60008;50.826;6.896;2022-11-04T06:41:11;9.35;;;1.80;;
72132;SDS011;60008;50.826;6.896;2022-11-04T06:44:00;9.02;;;2.25;;
72132;SDS011;60008;50.826;6.896;2022-11-04T06:46:45;7.93;;;2.07;;
72132;SDS011;60008;50.826;6.896;2022-11-04T06:49:30;8.60;;;2.10;;
72132;SDS011;60008;50.826;6.896;2022-11-04T06:52:15;11.88;;;2.45;;
72132;SDS011;60008;50.826;6.896;2022-11-04T06:55:00;13.20;;;2.97;;
72132;SDS011;60008;50.826;6.896;2022-11-04T06:57:45;11.45;;;3.13;;
72132;SDS011;60008;50.826;6.896;2022-11-04T07:00:30;21.40;;;6.57;;
72132;SDS011;60008;50.826;6.896;2022-11-04T07:03:15;26.30;;;8.13;;
72132;SDS011;60008;50.826;6.896;2022-11-04T07:06:07;23.85;;;8.85;;
72132;SDS011;60008;50.826;6.896;2022-11-04T07:08:54;13.20;;;4.70;;
72132;SDS011;60008;50.826;6.896;2022-11-04T07:11:41;12.75;;;4.20;;
72132;SDS011;60008;50.826;6.896;2022-11-04T07:14:27;11.00;;;4.07;;
72132;SDS011;60008;50.826;6.896;2022-11-04T07:17:13;15.38;;;5.40;;
72132;SDS011;60008;50.826;6.896;2022-11-04T07:19:58;12.55;;;3.42;;
72132;SDS011;60008;50.826;6.896;2022-11-04T07:22:43;6.90;;;2.22;;
72132;SDS011;60008;50.826;6.896;2022-11-04T07:25:27;10.30;;;2.28;;
72132;SDS011;60008;50.826;6.896;2022-11-04T07:28:12;8.50;;;2.33;;
72132;SDS011;60008;50.826;6.896;2022-11-04T07:30:58;9.27;;;2.78;;
72132;SDS011;60008;50.826;6.896;2022-11-04T07:33:44;12.13;;;1.92;;
72132;SDS011;60008;50.826;6.896;2022-11-04T07:36:34;4.30;;;1.75;;
72132;SDS011;60008;50.826;6.896;2022-11-04T07:39:18;12.43;;;1.60;;
72132;SDS011;60008;50.826;6.896;2022-11-04T07:42:05;4.07;;;1.60;;
72132;SDS011;60008;50.826;6.896;2022-11-04T07:44:51;5.65;;;1.63;;
72132;SDS011;60008;50.826;6.896;2022-11-04T07:47:36;10.48;;;2.00;;
72132;SDS011;60008;50.826;6.896;2022-11-04T07:50:21;8.98;;;1.83;;
72132;SDS011;60008;50.826;6.896;2022-11-04T07:53:06;7.13;;;2.10;;
72132;SDS011;60008;50.826;6.896;2022-11-04T07:55:52;5.47;;;1.57;;
72132;SDS011;60008;50.826;6.896;2022-11-04T07:58:37;5.03;;;2.08;;
72132;SDS011;60008;50.826;6.896;2022-11-04T08:01:23;7.45;;;1.70;;
72132;SDS011;60008;50.826;6.896;2022-11-04T08:04:08;4.43;;;1.50;;
72132;SDS011;60008;50.826;6.896;2022-11-04T08:06:55;4.55;;;1.60;;
72132;SDS011;60008;50.826;6.896;2022-11-04T08:09:39;5.30;;;1.50;;
72132;SDS011;60008;50.826;6.896;2022-11-04T08:12:25;5.72;;;1.38;;
72132;SDS011;60008;50.826;6.896;2022-11-04T08:15:11;4.45;;;1.98;;
72132;SDS011;60008;50.826;6.896;2022-11-04T08:17:56;5.38;;;1.60;;
72132;SDS011;60008;50.826;6.896;2022-11-04T08:20:45;4.65;;;1.50;;
72132;SDS011;60008;50.826;6.896;2022-11-04T08:23:34;5.50;;;1.70;;
72132;SDS011;60008;50.826;6.896;2022-11-04T08:26:19;11.65;;;1.58;;
72132;SDS011;60008;50.826;6.896;2022-11-04T08:29:06;6.75;;;1.70;;
72132;SDS011;60008;50.826;6.896;2022-11-04T08:31:52;4.22;;;1.60;;
72132;SDS011;60008;50.826;6.896;2022-11-04T08:34:37;6.65;;;1.70;;
72132;SDS011;60008;50.826;6.896;2022-11-04T08:37:22;3.97;;;1.53;;
72132;SDS011;60008;50.826;6.896;2022-11-04T08:40:07;4.93;;;1.40;;
72132;SDS011;60008;50.826;6.896;2022-11-04T08:42:53;5.65;;;1.52;;
72132;SDS011;60008;50.826;6.896;2022-11-04T08:45:38;5.13;;;1.50;;
72132;SDS011;60008;50.826;6.896;2022-11-04T08:48:26;6.40;;;1.60;;
72132;SDS011;60008;50.826;6.896;2022-11-04T08:51:13;6.57;;;1.60;;
72132;SDS011;60008;50.826;6.896;2022-11-04T08:54:01;7.90;;;1.52;;
72132;SDS011;60008;50.826;6.896;2022-11-04T08:56:46;5.28;;;1.38;;
72132;SDS011;60008;50.826;6.896;2022-11-04T08:59:31;5.18;;;1.65;;
72132;SDS011;60008;50.826;6.896;2022-11-04T09:02:16;4.65;;;1.67;;
72132;SDS011;60008;50.826;6.896;2022-11-04T09:05:01;5.33;;;1.80;;
72132;SDS011;60008;50.826;6.896;2022-11-04T09:07:46;5.28;;;1.50;;
72132;SDS011;60008;50.826;6.896;2022-11-04T09:10:31;9.27;;;2.00;;
72132;SDS011;60008;50.826;6.896;2022-11-04T09:13:16;9.07;;;1.85;;
72132;SDS011;60008;50.826;6.896;2022-11-04T09:16:01;6.70;;;1.80;;
72132;SDS011;60008;50.826;6.896;2022-11-04T09:18:47;3.60;;;1.70;;
72132;SDS011;60008;50.826;6.896;2022-11-04T09:21:32;5.80;;;1.67;;
72132;SDS011;60008;50.826;6.896;2022-11-04T09:24:17;3.50;;;1.33;;
72132;SDS011;60008;50.826;6.896;2022-11-04T09:27:03;4.75;;;1.85;;
72132;SDS011;60008;50.826;6.896;2022-11-04T09:29:49;5.35;;;1.65;;
72132;SDS011;60008;50.826;6.896;2022-11-04T09:32:34;5.93;;;1.80;;
72132;SDS011;60008;50.826;6.896;2022-11-04T09:35:19;4.45;;;1.52;;
72132;SDS011;60008;50.826;6.896;2022-11-04T09:38:03;3.92;;;1.42;;
72132;SDS011;60008;50.826;6.896;2022-11-04T09:40:48;5.65;;;1.40;;
72132;SDS011;60008;50.826;6.896;2022-11-04T09:43:38;4.20;;;1.60;;
72132;SDS011;60008;50.826;6.896;2022-11-04T09:46:26;8.53;;;1.97;;
72132;SDS011;60008;50.826;6.896;2022-11-04T09:49:16;7.20;;;1.60;;
72132;SDS011;60008;50.826;6.896;2022-11-04T09:52:03;5.80;;;1.35;;
72132;SDS011;60008;50.826;6.896;2022-11-04T09:55:09;5.43;;;1.40;;
72132;SDS011;60008;50.826;6.896;2022-11-04T09:58:00;4.68;;;1.60;;
72132;SDS011;60008;50.826;6.896;2022-11-04T10:00:49;6.53;;;1.47;;
72132;SDS011;60008;50.826;6.896;2022-11-04T10:06:31;4.95;;;1.50;;
72132;SDS011;60008;50.826;6.896;2022-11-04T10:12:52;5.18;;;1.50;;
72132;SDS011;60008;50.826;6.896;2022-11-04T10:22:12;7.90;;;2.33;;
72132;SDS011;60008;50.826;6.896;2022-11-04T10:25:13;4.55;;;1.42;;
72132;SDS011;60008;50.826;6.896;2022-11-04T10:28:03;5.93;;;1.65;;
72132;SDS011;60008;50.826;6.896;2022-11-04T10:30:51;4.43;;;1.70;;
72132;SDS011;60008;50.826;6.896;2022-11-04T10:33:37;5.80;;;1.60;;
72132;SDS011;60008;50.826;6.896;2022-11-04T10:36:27;4.07;;;1.48;;
72132;SDS011;60008;50.826;6.896;2022-11-04T10:39:47;8.05;;;1.65;;
72132;SDS011;60008;50.826;6.896;2022-11-04T10:42:27;8.85;;;2.00;;
72132;SDS011;60008;50.826;6.896;2022-11-04T10:45:12;10.87;;;2.63;;
72132;SDS011;60008;50.826;6.896;2022-11-04T10:47:59;8.43;;;2.17;;
72132;SDS011;60008;50.826;6.896;2022-11-04T10:50:52;9.93;;;1.88;;
72132;SDS011;60008;50.826;6.896;2022-11-04T10:53:39;4.85;;;1.35;;
72132;SDS011;60008;50.826;6.896;2022-11-04T10:56:34;7.05;;;1.52;;
72132;SDS011;60008;50.826;6.896;2022-11-04T10:59:29;8.27;;;1.80;;
72132;SDS011;60008;50.826;6.896;2022-11-04T11:02:16;4.18;;;1.10;;
72132;SDS011;60008;50.826;6.896;2022-11-04T11:08:02;5.35;;;1.52;;
72132;SDS011;60008;50.826;6.896;2022-11-04T11:10:50;6.88;;;1.90;;
72132;SDS011;60008;50.826;6.896;2022-11-04T11:13:37;6.83;;;1.40;;
72132;SDS011;60008;50.826;6.896;2022-11-04T11:16:25;3.45;;;1.02;;
72132;SDS011;60008;50.826;6.896;2022-11-04T11:19:13;4.05;;;0.70;;
72132;SDS011;60008;50.826;6.896;2022-11-04T11:22:01;3.05;;;0.80;;
72132;SDS011;60008;50.826;6.896;2022-11-04T11:24:46;3.75;;;0.82;;
72132;SDS011;60008;50.826;6.896;2022-11-04T11:27:31;2.43;;;0.70;;
72132;SDS011;60008;50.826;6.896;2022-11-04T11:30:23;2.85;;;0.70;;
72132;SDS011;60008;50.826;6.896;2022-11-04T11:33:25;5.63;;;0.88;;
72132;SDS011;60008;50.826;6.896;2022-11-04T11:36:21;3.80;;;0.73;;
72132;SDS011;60008;50.826;6.896;2022-11-04T11:42:05;1.67;;;0.50;;
72132;SDS011;60008;50.826;6.896;2022-11-04T11:44:55;2.78;;;0.35;;
72132;SDS011;60008;50.826;6.896;2022-11-04T11:47:43;2.65;;;0.45;;
72132;SDS011;60008;50.826;6.896;2022-11-04T11:50:28;1.83;;;0.40;;
72132;SDS011;60008;50.826;6.896;2022-11-04T11:53:18;1.95;;;0.50;;
72132;SDS011;60008;50.826;6.896;2022-11-04T11:59:50;2.10;;;0.60;;
72132;SDS011;60008;50.826;6.896;2022-11-04T12:03:02;5.72;;;0.50;;
72132;SDS011;60008;50.826;6.896;2022-11-04T12:06:17;1.95;;;0.38;;
72132;SDS011;60008;50.826;6.896;2022-11-04T12:15:20;2.35;;;0.47;;
72132;SDS011;60008;50.826;6.896;2022-11-04T12:18:38;1.52;;;0.50;;
72132;SDS011;60008;50.826;6.896;2022-11-04T12:21:30;4.75;;;0.70;;
72132;SDS011;60008;50.826;6.896;2022-11-04T12:24:24;1.70;;;0.32;;
72132;SDS011;60008;50.826;6.896;2022-11-04T12:27:38;2.40;;;0.40;;
72132;SDS011;60008;50.826;6.896;2022-11-04T12:30:33;1.15;;;0.30;;
72132;SDS011;60008;50.826;6.896;2022-11-04T12:33:47;1.95;;;0.35;;
72132;SDS011;60008;50.826;6.896;2022-11-04T12:37:07;2.13;;;0.40;;
72132;SDS011;60008;50.826;6.896;2022-11-04T12:40:10;2.28;;;0.70;;
72132;SDS011;60008;50.826;6.896;2022-11-04T12:46:31;5.13;;;1.02;;
72132;SDS011;60008;50.826;6.896;2022-11-04T12:49:42;5.05;;;0.73;;
72132;SDS011;60008;50.826;6.896;2022-11-04T12:52:58;4.43;;;0.60;;
72132;SDS011;60008;50.826;6.896;2022-11-04T12:59:11;2.90;;;0.50;;
72132;SDS011;60008;50.826;6.896;2022-11-04T13:02:12;3.90;;;0.70;;
72132;SDS011;60008;50.826;6.896;2022-11-04T13:08:33;4.55;;;0.80;;
72132;SDS011;60008;50.826;6.896;2022-11-04T13:11:30;3.35;;;0.60;;
72132;SDS011;60008;50.826;6.896;2022-11-04T13:14:26;2.30;;;0.57;;
72132;SDS011;60008;50.826;6.896;2022-11-04T13:17:17;2.20;;;0.77;;
72132;SDS011;60008;50.826;6.896;2022-11-04T13:22:58;4.72;;;0.50;;
72132;SDS011;60008;50.826;6.896;2022-11-04T13:25:47;4.50;;;1.00;;
72132;SDS011;60008;50.826;6.896;2022-11-04T13:28:33;3.77;;;0.70;;
72132;SDS011;60008;50.826;6.896;2022-11-04T13:31:33;2.20;;;0.73;;
72132;SDS011;60008;50.826;6.896;2022-11-04T13:37:54;1.83;;;0.40;;
72132;SDS011;60008;50.826;6.896;2022-11-04T13:43:47;3.53;;;0.67;;
72132;SDS011;60008;50.826;6.896;2022-11-04T13:46:37;2.25;;;0.75;;
72132;SDS011;60008;50.826;6.896;2022-11-04T13:49:23;2.17;;;0.68;;
72132;SDS011;60008;50.826;6.896;2022-11-04T13:52:29;4.05;;;0.73;;
72132;SDS011;60008;50.826;6.896;2022-11-04T13:55:16;3.97;;;0.63;;
72132;SDS011;60008;50.826;6.896;2022-11-04T13:58:05;2.33;;;0.40;;
72132;SDS011;60008;50.826;6.896;2022-11-04T14:04:18;3.65;;;1.10;;
72132;SDS011;60008;50.826;6.896;2022-11-04T14:07:11;2.63;;;0.70;;
72132;SDS011;60008;50.826;6.896;2022-11-04T14:09:59;1.80;;;0.45;;
72132;SDS011;60008;50.826;6.896;2022-11-04T14:12:44;4.93;;;0.77;;
72132;SDS011;60008;50.826;6.896;2022-11-04T14:15:57;6.97;;;0.80;;
72132;SDS011;60008;50.826;6.896;2022-11-04T14:18:51;3.70;;;0.68;;
72132;SDS011;60008;50.826;6.896;2022-11-04T14:22:03;3.38;;;0.93;;
72132;SDS011;60008;50.826;6.896;2022-11-04T14:24:59;2.33;;;0.70;;
72132;SDS011;60008;50.826;6.896;2022-11-04T14:30:55;3.47;;;0.50;;
72132;SDS011;60008;50.826;6.896;2022-11-04T14:36:38;2.05;;;0.70;;
72132;SDS011;60008;50.826;6.896;2022-11-04T14:39:32;1.75;;;0.60;;
72132;SDS011;60008;50.826;6.896;2022-11-04T14:42:42;3.97;;;0.70;;
72132;SDS011;60008;50.826;6.896;2022-11-04T14:45:37;5.05;;;0.88;;
72132;SDS011;60008;50.826;6.896;2022-11-04T14:48:23;2.10;;;0.55;;
72132;SDS011;60008;50.826;6.896;2022-11-04T14:51:16;4.65;;;1.40;;
72132;SDS011;60008;50.826;6.896;2022-11-04T14:54:09;4.95;;;1.48;;
72132;SDS011;60008;50.826;6.896;2022-11-04T14:57:11;5.13;;;1.30;;
72132;SDS011;60008;50.826;6.896;2022-11-04T14:59:59;3.20;;;1.40;;
72132;SDS011;60008;50.826;6.896;2022-11-04T15:02:43;6.70;;;1.75;;
72132;SDS011;60008;50.826;6.896;2022-11-04T15:05:28;6.90;;;1.60;;
72132;SDS011;60008;50.826;6.896;2022-11-04T15:08:30;6.13;;;1.75;;
72132;SDS011;60008;50.826;6.896;2022-11-04T15:11:17;4.47;;;1.50;;
72132;SDS011;60008;50.826;6.896;2022-11-04T15:14:41;6.38;;;1.40;;
72132;SDS011;60008;50.826;6.896;2022-11-04T15:17:27;5.43;;;2.40;;
72132;SDS011;60008;50.826;6.896;2022-11-04T15:20:25;5.25;;;1.90;;
72132;SDS011;60008;50.826;6.896;2022-11-04T15:23:15;4.60;;;1.58;;
72132;SDS011;60008;50.826;6.896;2022-11-04T15:26:02;6.40;;;1.50;;
72132;SDS011;60008;50.826;6.896;2022-11-04T15:28:49;4.88;;;1.63;;
72132;SDS011;60008;50.826;6.896;2022-11-04T15:31:35;4.50;;;1.50;;
72132;SDS011;60008;50.826;6.896;2022-11-04T15:34:21;8.35;;;1.70;;
72132;SDS011;60008;50.826;6.896;2022-11-04T15:37:09;8.10;;;1.48;;
72132;SDS011;60008;50.826;6.896;2022-11-04T15:39:56;7.93;;;1.73;;
72132;SDS011;60008;50.826;6.896;2022-11-04T15:42:42;4.20;;;1.60;;
72132;SDS011;60008;50.826;6.896;2022-11-04T15:48:37;5.65;;;1.55;;
72132;SDS011;60008;50.826;6.896;2022-11-04T15:51:23;10.45;;;1.85;;
72132;SDS011;60008;50.826;6.896;2022-11-04T15:54:19;8.10;;;2.00;;
72132;SDS011;60008;50.826;6.896;2022-11-04T15:57:11;8.88;;;1.92;;
72132;SDS011;60008;50.826;6.896;2022-11-04T16:03:03;8.43;;;2.00;;
72132;SDS011;60008;50.826;6.896;2022-11-04T16:05:58;7.60;;;2.33;;
72132;SDS011;60008;50.826;6.896;2022-11-04T16:12:13;6.07;;;2.58;;
72132;SDS011;60008;50.826;6.896;2022-11-04T16:15:00;8.60;;;2.70;;
72132;SDS011;60008;50.826;6.896;2022-11-04T16:17:45;9.00;;;2.78;;
72132;SDS011;60008;50.826;6.896;2022-11-04T16:20:30;11.20;;;2.90;;
72132;SDS011;60008;50.826;6.896;2022-11-04T16:23:19;16.23;;;3.27;;
72132;SDS011;60008;50.826;6.896;2022-11-04T16:26:06;8.27;;;2.45;;
72132;SDS011;60008;50.826;6.896;2022-11-04T16:28:53;10.30;;;2.55;;
72132;SDS011;60008;50.826;6.896;2022-11-04T16:31:40;10.50;;;2.83;;
72132;SDS011;60008;50.826;6.896;2022-11-04T16:34:25;6.80;;;2.58;;
72132;SDS011;60008;50.826;6.896;2022-11-04T16:37:10;9.17;;;2.97;;
72132;SDS011;60008;50.826;6.896;2022-11-04T16:39:56;7.78;;;3.33;;
72132;SDS011;60008;50.826;6.896;2022-11-04T16:42:41;14.32;;;3.00;;
72132;SDS011;60008;50.826;6.896;2022-11-04T16:45:33;8.35;;;3.15;;
72132;SDS011;60008;50.826;6.896;2022-11-04T16:48:20;10.50;;;3.08;;
72132;SDS011;60008;50.826;6.896;2022-11-04T16:51:12;6.57;;;2.60;;
72132;SDS011;60008;50.826;6.896;2022-11-04T16:54:02;11.52;;;3.10;;
72132;SDS011;60008;50.826;6.896;2022-11-04T16:56:47;10.52;;;2.85;;
72132;SDS011;60008;50.826;6.896;2022-11-04T16:59:33;8.27;;;3.00;;
72132;SDS011;60008;50.826;6.896;2022-11-04T17:02:25;7.95;;;3.05;;
72132;SDS011;60008;50.826;6.896;2022-11-04T17:05:12;8.85;;;2.80;;
72132;SDS011;60008;50.826;6.896;2022-11-04T17:07:57;8.73;;;3.20;;
72132;SDS011;60008;50.826;6.896;2022-11-04T17:10:48;11.70;;;3.38;;
72132;SDS011;60008;50.826;6.896;2022-11-04T17:13:34;11.50;;;3.78;;
72132;SDS011;60008;50.826;6.896;2022-11-04T17:16:20;14.13;;;4.18;;
72132;SDS011;60008;50.826;6.896;2022-11-04T17:19:07;10.85;;;3.90;;
72132;SDS011;60008;50.826;6.896;2022-11-04T17:21:58;6.90;;;3.80;;
72132;SDS011;60008;50.826;6.896;2022-11-04T17:24:44;10.50;;;3.40;;
72132;SDS011;60008;50.826;6.896;2022-11-04T17:27:29;9.38;;;3.80;;
72132;SDS011;60008;50.826;6.896;2022-11-04T17:30:15;10.27;;;3.92;;
72132;SDS011;60008;50.826;6.896;2022-11-04T17:33:01;9.07;;;4.00;;
72132;SDS011;60008;50.826;6.896;2022-11-04T17:35:49;12.37;;;3.87;;
72132;SDS011;60008;50.826;6.896;2022-11-04T17:38:35;8.00;;;3.45;;
72132;SDS011;60008;50.826;6.896;2022-11-04T17:41:20;12.35;;;3.40;;
72132;SDS011;60008;50.826;6.896;2022-11-04T17:44:23;7.72;;;3.55;;
72132;SDS011;60008;50.826;6.896;2022-11-04T17:47:08;8.80;;;3.55;;
72132;SDS011;60008;50.826;6.896;2022-11-04T17:49:53;12.60;;;3.57;;
72132;SDS011;60008;50.826;6.896;2022-11-04T17:52:38;13.52;;;4.50;;
72132;SDS011;60008;50.826;6.896;2022-11-04T17:55:25;12.32;;;4.75;;
72132;SDS011;60008;50.826;6.896;2022-11-04T17:58:11;12.63;;;4.68;;
72132;SDS011;60008;50.826;6.896;2022-11-04T18:00:56;11.55;;;4.25;;
72132;SDS011;60008;50.826;6.896;2022-11-04T18:03:51;9.70;;;4.50;;
72132;SDS011;60008;50.826;6.896;2022-11-04T18:06:37;9.88;;;3.75;;
72132;SDS011;60008;50.826;6.896;2022-11-04T18:09:23;8.57;;;3.60;;
72132;SDS011;60008;50.826;6.896;2022-11-04T18:12:08;11.30;;;4.07;;
72132;SDS011;60008;50.826;6.896;2022-11-04T18:15:13;10.15;;;4.13;;
72132;SDS011;60008;50.826;6.896;2022-11-04T18:18:00;13.00;;;3.80;;
72132;SDS011;60008;50.826;6.896;2022-11-04T18:20:45;11.02;;;4.22;;
72132;SDS011;60008;50.826;6.896;2022-11-04T18:23:30;9.98;;;4.32;;
72132;SDS011;60008;50.826;6.896;2022-11-04T18:26:15;10.40;;;4.60;;